Time;durP1;ratioP1;P1;durP2;ratioP2;P2;SDS_P1;SDS_P2;PMS_P1;PMS_P2;Temp;Humidity;BMP_temperature;BMP_pressure;BME280_temperature;BME280_humidity;BME280_pressure;Samples;Min_cycle;Max_cycle;Signal;HPM_P1;HPM_P2
2023/08/23 00:02:27;;;;;;;;;;;;;;;16.93;100.00;101956.25;10626825;27;19930;-70
2023/08/23 00:07:29;;;;;;;;;;;;;;;16.94;100.00;101960.59;10626840;27;19931;-70
2023/08/23 00:12:31;;;;;;;;;;;;;;;16.88;100.00;101965.34;10626518;27;20034;-70
2023/08/23 00:17:34;;;;;;;;;;;;;;;16.84;100.00;101949.75;10626273;27;19923;-70
2023/08/23 00:22:36;;;;;;;;;;;;;;;16.73;100.00;101939.88;10625541;27;19924;-70
2023/08/23 00:27:38;;;;;;;;;;;;;;;16.62;100.00;101951.13;10625973;27;20002;-71
2023/08/23 00:32:40;;;;;;;;;;;;;;;16.63;100.00;101942.25;10625802;27;19923;-70
2023/08/23 00:37:43;;;;;;;;;;;;;;;16.74;100.00;101938.06;10624995;27;20275;-70
2023/08/23 00:42:45;;;;;;;;;;;;;;;16.61;100.00;101938.88;10624709;27;20024;-70
2023/08/23 00:47:48;;;;;;;;;;;;;;;16.59;100.00;101934.63;10623908;27;19945;-70
2023/08/23 00:52:50;;;;;;;;;;;;;;;16.59;100.00;101926.69;10625319;28;19930;-70
2023/08/23 00:57:54;;;;;;;;;;;;;;;16.55;100.00;101930.50;10625199;27;19930;-70
2023/08/23 01:02:57;;;;;;;;;;;;;;;16.66;100.00;101926.22;10625143;27;19930;-70
2023/08/23 01:08:03;;;;;;;;;;;;;;;16.40;100.00;101930.53;10624978;28;19966;-70
2023/08/23 01:13:08;;;;;;;;;;;;;;;16.22;100.00;101942.25;10623830;28;20003;-70
2023/08/23 01:18:11;;;;;;;;;;;;;;;16.24;100.00;101930.66;10623666;28;19924;-70
2023/08/23 01:23:13;;;;;;;;;;;;;;;16.26;100.00;101943.78;10622921;28;19927;-70
2023/08/23 01:28:16;;;;;;;;;;;;;;;16.07;100.00;101936.16;10623399;28;19931;-70
2023/08/23 01:33:19;;;;;;;;;;;;;;;16.05;100.00;101938.03;10623356;28;19924;-69
2023/08/23 01:38:21;;;;;;;;;;;;;;;16.02;100.00;101943.50;10622666;28;20374;-70
2023/08/23 01:43:24;;;;;;;;;;;;;;;16.05;100.00;101946.81;10622987;28;19923;-70
2023/08/23 01:48:26;;;;;;;;;;;;;;;16.05;100.00;101933.59;10623717;28;19946;-70
2023/08/23 01:53:28;;;;;;;;;;;;;;;15.96;100.00;101929.75;10623501;27;20298;-70
2023/08/23 01:58:31;;;;;;;;;;;;;;;15.91;100.00;101930.97;10629279;27;19923;-70
2023/08/23 02:03:33;;;;;;;;;;;;;;;16.06;100.00;101935.31;10631630;27;19930;-70
2023/08/23 02:08:35;;;;;;;;;;;;;;;16.15;100.00;101937.38;10631484;27;19931;-70
2023/08/23 02:13:37;;;;;;;;;;;;;;;15.95;100.00;101936.00;10631342;27;19930;-70
2023/08/23 02:18:40;;;;;;;;;;;;;;;15.93;100.00;101937.84;10612269;27;19982;-70
2023/08/23 02:23:42;;;;;;;;;;;;;;;15.87;100.00;101929.47;10629719;27;19933;-70
2023/08/23 02:28:44;;;;;;;;;;;;;;;15.82;100.00;101927.13;10630006;27;20035;-70
2023/08/23 02:33:46;;;;;;;;;;;;;;;15.84;100.00;101919.94;10630492;27;19927;-70
2023/08/23 02:38:49;;;;;;;;;;;;;;;15.78;100.00;101915.91;10630365;27;20010;-70
2023/08/23 02:43:51;;;;;;;;;;;;;;;15.76;100.00;101915.13;10629918;27;19923;-70
2023/08/23 02:48:53;;;;;;;;;;;;;;;15.75;100.00;101910.81;10629280;27;20282;-70
2023/08/23 02:53:55;;;;;;;;;;;;;;;15.68;100.00;101921.78;10629164;27;20022;-70
2023/08/23 02:58:58;;;;;;;;;;;;;;;15.64;100.00;101915.84;10628872;27;20267;-70
2023/08/23 03:04:00;;;;;;;;;;;;;;;15.61;100.00;101902.84;10629341;27;19923;-69
2023/08/23 03:09:02;;;;;;;;;;;;;;;15.63;100.00;101905.41;10628154;27;19934;-70
2023/08/23 03:14:04;;;;;;;;;;;;;;;15.65;100.00;101912.28;10627063;27;20386;-70
2023/08/23 03:19:07;;;;;;;;;;;;;;;15.72;100.00;101903.03;10626896;27;19930;-70
2023/08/23 03:24:09;;;;;;;;;;;;;;;15.75;100.00;101902.00;10628500;27;19927;-70
2023/08/23 03:29:11;;;;;;;;;;;;;;;15.69;100.00;101892.66;10628209;27;19945;-71
2023/08/23 03:34:13;;;;;;;;;;;;;;;15.65;100.00;101891.16;10627163;27;19929;-71
2023/08/23 03:39:16;;;;;;;;;;;;;;;15.61;100.00;101890.47;10628090;27;19930;-73
2023/08/23 03:44:18;;;;;;;;;;;;;;;15.56;100.00;101902.28;10627780;27;20294;-73
2023/08/23 03:49:20;;;;;;;;;;;;;;;15.50;100.00;101892.94;10627847;27;19997;-73
2023/08/23 03:54:22;;;;;;;;;;;;;;;15.58;100.00;101908.31;10625558;27;19927;-73
2023/08/23 03:59:25;;;;;;;;;;;;;;;15.45;100.00;101902.94;10607124;22;19923;-73
2023/08/23 04:04:27;;;;;;;;;;;;;;;15.53;100.00;101899.81;10566016;28;20275;-73
2023/08/23 04:09:29;;;;;;;;;;;;;;;15.59;100.00;101891.53;10584122;28;20019;-72
2023/08/23 04:14:31;;;;;;;;;;;;;;;15.60;100.00;101902.00;10583322;28;20450;-72
2023/08/23 04:19:34;;;;;;;;;;;;;;;15.44;100.00;101914.44;10584213;28;19928;-72
2023/08/23 04:24:36;;;;;;;;;;;;;;;15.41;100.00;101918.09;10565709;28;19931;-74
2023/08/23 04:29:38;;;;;;;;;;;;;;;15.71;100.00;101911.91;10583722;28;19932;-74
2023/08/23 04:34:40;;;;;;;;;;;;;;;15.87;100.00;101911.84;10583409;28;20007;-74
2023/08/23 04:39:43;;;;;;;;;;;;;;;15.89;100.00;101912.59;10583059;28;19971;-74
2023/08/23 04:44:45;;;;;;;;;;;;;;;16.04;100.00;101915.19;10583068;28;19924;-74
2023/08/23 04:49:47;;;;;;;;;;;;;;;15.71;100.00;101916.34;10564140;28;20390;-74
2023/08/23 04:54:49;;;;;;;;;;;;;;;15.88;100.00;101913.53;10583196;28;19930;-74
2023/08/23 04:59:52;;;;;;;;;;;;;;;15.95;100.00;101925.44;10582139;28;19924;-74
2023/08/23 05:04:55;;;;;;;;;;;;;;;15.83;100.00;101923.53;10565058;28;19931;-74
2023/08/23 05:09:57;;;;;;;;;;;;;;;16.06;100.00;101908.06;10581773;28;20286;-74
2023/08/23 05:14:59;;;;;;;;;;;;;;;16.21;100.00;101899.16;10582520;28;19924;-74
2023/08/23 05:20:02;;;;;;;;;;;;;;;16.39;100.00;101901.53;10581877;28;19924;-74
2023/08/23 05:25:04;;;;;;;;;;;;;;;16.55;100.00;101894.31;10581612;28;19934;-74
2023/08/23 05:30:08;;;;;;;;;;;;;;;16.69;100.00;101904.00;10582617;28;19930;-74
2023/08/23 05:35:10;;;;;;;;;;;;;;;16.77;100.00;101906.97;10590132;28;20010;-74
2023/08/23 05:40:13;;;;;;;;;;;;;;;16.80;100.00;101903.28;10590194;28;19963;-74
2023/08/23 05:45:15;;;;;;;;;;;;;;;16.75;100.00;101908.03;10590069;28;19930;-74
2023/08/23 05:50:17;;;;;;;;;;;;;;;16.96;100.00;101911.91;10571013;28;19924;-74
2023/08/23 05:55:19;;;;;;;;;;;;;;;17.02;100.00;101903.56;10589062;28;19924;-70
2023/08/23 06:00:22;;;;;;;;;;;;;;;17.21;100.00;101897.88;10588905;28;19931;-73
2023/08/23 06:05:24;;;;;;;;;;;;;;;17.15;100.00;101914.19;10589277;28;19950;-73
2023/08/23 06:10:26;;;;;;;;;;;;;;;17.29;100.00;101909.78;10588240;28;19938;-73
2023/08/23 06:15:28;;;;;;;;;;;;;;;17.47;100.00;101916.44;10588668;28;19924;-73
2023/08/23 06:20:30;;;;;;;;;;;;;;;17.67;100.00;101908.91;10588573;28;19930;-73
2023/08/23 06:25:33;;;;;;;;;;;;;;;17.79;100.00;101908.06;10570308;28;19930;-73
2023/08/23 06:30:36;;;;;;;;;;;;;;;17.88;100.00;101912.72;10588141;28;19923;-73
2023/08/23 06:35:38;;;;;;;;;;;;;;;18.13;100.00;101914.47;10570089;28;19973;-73
2023/08/23 06:40:42;;;;;;;;;;;;;;;18.13;100.00;101911.81;10569076;28;20362;-73
2023/08/23 06:45:44;;;;;;;;;;;;;;;18.48;100.00;101912.88;10568267;28;19927;-73
2023/08/23 06:50:46;;;;;;;;;;;;;;;18.55;100.00;101912.31;10587811;28;19932;-73
2023/08/23 06:55:48;;;;;;;;;;;;;;;18.61;100.00;101920.78;10586532;28;19923;-73
2023/08/23 07:00:51;;;;;;;;;;;;;;;18.77;100.00;101916.03;10586326;28;19923;-73
2023/08/23 07:05:53;;;;;;;;;;;;;;;18.97;100.00;101919.88;10586141;28;20010;-73
2023/08/23 07:10:55;;;;;;;;;;;;;;;19.15;95.20;101920.31;10586530;28;19924;-73
2023/08/23 07:15:57;;;;;;;;;;;;;;;19.34;92.97;101927.69;10586828;28;19930;-73
2023/08/23 07:21:00;;;;;;;;;;;;;;;19.80;89.73;101917.97;10586262;28;19985;-73
2023/08/23 07:26:03;;;;;;;;;;;;;;;20.02;92.54;101925.97;10567339;28;20293;-73
2023/08/23 07:31:05;;;;;;;;;;;;;;;20.57;85.21;101931.25;10585066;28;19945;-73
2023/08/23 07:36:07;;;;;;;;;;;;;;;21.33;81.97;101931.19;10566823;28;20441;-73
2023/08/23 07:41:10;;;;;;;;;;;;;;;22.00;79.72;101946.81;10566886;28;19946;-73
2023/08/23 07:46:12;;;;;;;;;;;;;;;22.50;77.41;101936.16;10566800;28;20307;-73
2023/08/23 07:51:14;;;;;;;;;;;;;;;23.19;73.38;101939.69;10584276;28;19928;-74
2023/08/23 07:56:17;;;;;;;;;;;;;;;23.68;70.35;101940.38;10583710;28;20292;-72
2023/08/23 08:01:20;;;;;;;;;;;;;;;23.22;71.81;101941.19;10565961;28;19923;-72
2023/08/23 08:06:22;;;;;;;;;;;;;;;23.35;69.81;101941.75;10583785;28;20333;-71
2023/08/23 08:11:24;;;;;;;;;;;;;;;22.99;70.88;101945.00;10583486;28;19934;-71
2023/08/23 08:16:26;;;;;;;;;;;;;;;24.08;66.48;101938.41;10583976;28;19924;-72
2023/08/23 08:21:29;;;;;;;;;;;;;;;24.82;66.17;101939.19;10583835;28;19927;-72
2023/08/23 08:26:31;;;;;;;;;;;;;;;25.22;68.48;101938.66;10583660;28;19923;-71
2023/08/23 08:31:34;;;;;;;;;;;;;;;25.09;66.07;101940.91;10583434;28;19928;-71
2023/08/23 08:36:36;;;;;;;;;;;;;;;25.38;66.82;101945.97;10583358;28;19924;-71
2023/08/23 08:41:41;;;;;;;;;;;;;;;24.45;65.87;101951.69;10582589;28;20285;-71
2023/08/23 08:46:43;;;;;;;;;;;;;;;25.60;64.09;101949.13;10564734;28;19924;-71
2023/08/23 08:51:48;;;;;;;;;;;;;;;26.01;60.61;101946.69;10564167;28;19924;-72
2023/08/23 08:56:50;;;;;;;;;;;;;;;25.59;60.91;101945.63;10582804;28;19930;-72
2023/08/23 09:01:57;;;;;;;;;;;;;;;26.49;59.25;101941.59;10563873;28;20281;-72
2023/08/23 09:07:01;;;;;;;;;;;;;;;26.46;60.60;101934.72;10568981;28;19924;-72
2023/08/23 09:12:03;;;;;;;;;;;;;;;26.40;58.83;101945.28;10591310;28;19924;-72
2023/08/23 09:17:06;;;;;;;;;;;;;;;26.92;54.62;101938.81;10590642;28;20371;-72
2023/08/23 09:22:08;;;;;;;;;;;;;;;26.18;58.52;101936.00;10572324;28;19931;-71
2023/08/23 09:27:10;;;;;;;;;;;;;;;27.42;53.32;101927.00;10591125;28;19924;-72
2023/08/23 09:32:27;;;;;;;;;;;;;;;27.84;54.10;101931.22;10574565;28;19977;-72
2023/08/23 09:37:29;;;;;;;;;;;;;;;28.56;52.87;101915.88;10590327;28;19977;-72
2023/08/23 09:42:32;;;;;;;;;;;;;;;28.67;53.68;101913.59;10590025;28;19993;-72
2023/08/23 09:47:35;;;;;;;;;;;;;;;29.05;54.03;101920.84;10571874;28;19928;-72
2023/08/23 09:52:37;;;;;;;;;;;;;;;28.81;49.74;101928.13;10571692;28;20373;-72
2023/08/23 09:57:40;;;;;;;;;;;;;;;29.30;50.76;101926.00;10589366;28;19934;-72
2023/08/23 10:02:42;;;;;;;;;;;;;;;27.69;50.52;101922.19;10571454;28;19924;-72
2023/08/23 10:07:45;;;;;;;;;;;;;;;29.87;48.96;101924.53;10571092;28;19928;-72
2023/08/23 10:12:48;;;;;;;;;;;;;;;29.24;49.71;101924.91;10570213;28;19924;-72
2023/08/23 10:17:50;;;;;;;;;;;;;;;30.62;48.99;101908.94;10569829;28;19924;-71
2023/08/23 10:22:55;;;;;;;;;;;;;;;28.32;52.80;101918.53;10588742;28;19973;-72
2023/08/23 10:27:58;;;;;;;;;;;;;;;30.56;48.42;101918.63;10570377;28;20026;-73
2023/08/23 10:33:07;;;;;;;;;;;;;;;31.60;46.37;101917.97;10569999;28;19938;-73
2023/08/23 10:38:09;;;;;;;;;;;;;;;31.38;47.19;101911.78;10587378;28;19924;-73
2023/08/23 10:43:13;;;;;;;;;;;;;;;31.08;43.58;101903.06;10552294;28;19923;-73
2023/08/23 10:48:15;;;;;;;;;;;;;;;30.71;46.42;101896.94;10587554;28;19976;-73
2023/08/23 10:53:17;;;;;;;;;;;;;;;30.17;45.10;101907.22;10586795;28;19978;-73
2023/08/23 10:58:19;;;;;;;;;;;;;;;33.03;40.98;101889.88;10586432;28;19945;-73
2023/08/23 11:03:22;;;;;;;;;;;;;;;31.79;43.66;101891.19;10569391;28;19930;-73
2023/08/23 11:08:24;;;;;;;;;;;;;;;33.25;42.34;101887.75;10586147;28;20283;-72
2023/08/23 11:13:26;;;;;;;;;;;;;;;33.23;40.60;101887.16;10586398;28;19967;-74
2023/08/23 11:18:29;;;;;;;;;;;;;;;33.34;39.19;101882.97;10586275;28;19930;-73
2023/08/23 11:23:31;;;;;;;;;;;;;;;34.54;39.63;101870.59;10585477;28;19966;-74
2023/08/23 11:28:33;;;;;;;;;;;;;;;33.21;38.21;101872.16;10585202;28;19924;-74
2023/08/23 11:33:37;;;;;;;;;;;;;;;33.06;41.61;101854.19;10566904;28;20375;-73
2023/08/23 11:38:39;;;;;;;;;;;;;;;33.40;38.69;101856.84;10551032;28;20018;-73
2023/08/23 11:43:45;;;;;;;;;;;;;;;33.67;38.73;101852.09;10567466;28;20007;-73
2023/08/23 11:48:47;;;;;;;;;;;;;;;33.66;37.32;101855.91;10585317;28;19924;-74
2023/08/23 11:53:50;;;;;;;;;;;;;;;33.88;39.69;101859.97;10584197;28;20275;-74
2023/08/23 11:58:52;;;;;;;;;;;;;;;33.06;42.24;101850.66;10584525;28;19923;-73
2023/08/23 12:03:54;;;;;;;;;;;;;;;33.22;40.89;101854.81;10584470;28;19924;-73
2023/08/23 12:08:57;;;;;;;;;;;;;;;32.52;41.89;101849.88;10566569;28;19924;-73
2023/08/23 12:14:00;;;;;;;;;;;;;;;32.62;38.44;101858.44;10566122;28;19924;-73
2023/08/23 12:19:04;;;;;;;;;;;;;;;33.26;38.89;101861.50;10566994;28;19974;-73
2023/08/23 12:24:22;;;;;;;;;;;;;;;33.74;38.72;101858.38;10583934;28;19981;-74
2023/08/23 12:29:26;;;;;;;;;;;;;;;32.34;40.06;101850.50;10582934;28;19924;-74
2023/08/23 12:34:29;;;;;;;;;;;;;;;32.89;39.26;101850.28;10583430;28;19930;-74
2023/08/23 12:39:31;;;;;;;;;;;;;;;31.48;40.71;101858.13;10565317;28;19963;-73
2023/08/23 12:44:33;;;;;;;;;;;;;;;33.51;39.03;101845.31;10583123;28;19924;-73
2023/08/23 12:49:36;;;;;;;;;;;;;;;33.21;39.48;101835.00;10582318;28;20489;-74
2023/08/23 12:54:38;;;;;;;;;;;;;;;32.07;37.81;101836.91;10548110;28;19923;-74
2023/08/23 12:59:40;;;;;;;;;;;;;;;33.01;38.19;101845.88;10582115;28;19923;-73
2023/08/23 13:04:42;;;;;;;;;;;;;;;34.01;38.22;101831.88;10582696;28;19924;-74
2023/08/23 13:09:45;;;;;;;;;;;;;;;33.45;39.65;101833.41;10563891;28;19924;-74
2023/08/23 13:14:47;;;;;;;;;;;;;;;33.16;40.28;101834.78;10583028;28;19924;-73
2023/08/23 13:19:49;;;;;;;;;;;;;;;32.90;39.03;101830.22;10563888;28;19924;-73
2023/08/23 13:24:51;;;;;;;;;;;;;;;33.64;40.42;101834.38;10581665;28;20011;-73
2023/08/23 13:29:54;;;;;;;;;;;;;;;32.93;38.19;101833.38;10564097;28;19923;-73
2023/08/23 13:34:56;;;;;;;;;;;;;;;32.56;41.47;101829.44;10581524;28;20388;-74
2023/08/23 13:39:58;;;;;;;;;;;;;;;33.50;37.83;101825.47;10546573;28;19930;-73
2023/08/23 13:45:00;;;;;;;;;;;;;;;33.01;37.83;101818.75;10581297;28;19924;-73
2023/08/23 13:50:04;;;;;;;;;;;;;;;30.78;41.74;101808.63;10581819;28;19967;-73
2023/08/23 13:55:06;;;;;;;;;;;;;;;32.79;39.60;101812.75;10553183;28;20034;-74
2023/08/23 14:00:09;;;;;;;;;;;;;;;32.10;39.91;101804.00;10589032;28;19972;-73
2023/08/23 14:05:11;;;;;;;;;;;;;;;31.36;40.16;101800.22;10553882;28;20445;-73
2023/08/23 14:10:13;;;;;;;;;;;;;;;31.34;43.04;101794.19;10588438;28;20399;-73
2023/08/23 14:15:15;;;;;;;;;;;;;;;31.73;40.41;101791.84;10588918;28;19927;-73
2023/08/23 14:20:18;;;;;;;;;;;;;;;29.74;44.66;101788.38;10588727;28;19959;-73
2023/08/23 14:25:20;;;;;;;;;;;;;;;28.89;47.19;101787.91;10553460;28;19930;-73
2023/08/23 14:30:22;;;;;;;;;;;;;;;30.30;44.56;101776.88;10588157;28;19930;-73
2023/08/23 14:35:24;;;;;;;;;;;;;;;31.77;39.30;101774.16;10587528;28;19971;-73
2023/08/23 14:40:27;;;;;;;;;;;;;;;31.21;39.13;101777.91;10587945;28;20026;-74
2023/08/23 14:45:29;;;;;;;;;;;;;;;32.01;40.89;101768.13;10587080;28;19923;-73
2023/08/23 14:50:34;;;;;;;;;;;;;;;31.15;41.32;101776.00;10586798;28;20283;-73
2023/08/23 14:55:36;;;;;;;;;;;;;;;32.93;40.85;101776.44;10587332;28;19934;-74
2023/08/23 15:00:39;;;;;;;;;;;;;;;32.12;40.86;101776.72;10586392;28;19924;-74
2023/08/23 15:05:41;;;;;;;;;;;;;;;32.66;38.53;101775.66;10585899;28;19924;-74
2023/08/23 15:10:44;;;;;;;;;;;;;;;32.66;40.52;101777.53;10586042;28;19924;-74
2023/08/23 15:15:46;;;;;;;;;;;;;;;29.71;47.29;101772.56;10586507;28;19932;-74
2023/08/23 15:20:48;;;;;;;;;;;;;;;32.08;40.05;101770.03;10585718;28;19924;-73
2023/08/23 15:25:50;;;;;;;;;;;;;;;30.00;46.18;101774.31;10586129;28;19959;-73
2023/08/23 15:30:53;;;;;;;;;;;;;;;30.36;46.91;101769.88;10585910;28;20022;-73
2023/08/23 15:35:55;;;;;;;;;;;;;;;32.54;41.50;101766.47;10585699;28;19930;-74
2023/08/23 15:40:57;;;;;;;;;;;;;;;31.97;40.73;101755.22;10584840;28;20362;-74
2023/08/23 15:45:59;;;;;;;;;;;;;;;30.30;44.28;101757.97;10585307;28;19959;-73
2023/08/23 15:51:02;;;;;;;;;;;;;;;30.54;42.88;101767.50;10585064;28;19924;-74
2023/08/23 15:56:06;;;;;;;;;;;;;;;30.64;45.28;101758.25;10584059;28;20318;-74
2023/08/23 16:01:08;;;;;;;;;;;;;;;30.14;46.30;101761.81;10564758;28;19928;-73
2023/08/23 16:06:11;;;;;;;;;;;;;;;30.37;46.07;101764.28;10582179;28;20011;-73
2023/08/23 16:11:13;;;;;;;;;;;;;;;29.03;49.66;101759.31;10581986;28;19946;-73
2023/08/23 16:16:16;;;;;;;;;;;;;;;29.15;49.38;101754.25;10563780;22;1843672;-73
2023/08/23 16:21:19;;;;;;;;;;;;;;;28.67;51.80;101751.13;10626578;27;19930;-73
2023/08/23 16:26:21;;;;;;;;;;;;;;;29.31;47.04;101728.13;10625755;27;19930;-74
2023/08/23 16:31:23;;;;;;;;;;;;;;;28.35;52.68;101742.31;10625555;27;20407;-73
2023/08/23 16:36:25;;;;;;;;;;;;;;;27.63;54.76;101735.44;10626617;27;19931;-73
2023/08/23 16:41:28;;;;;;;;;;;;;;;28.02;54.11;101736.38;10625933;27;19941;-73
2023/08/23 16:46:30;;;;;;;;;;;;;;;27.87;55.54;101738.97;10623970;27;20366;-73
2023/08/23 16:51:32;;;;;;;;;;;;;;;27.44;56.43;101731.38;10625563;27;19931;-74
2023/08/23 16:56:35;;;;;;;;;;;;;;;27.14;56.06;101738.38;10624412;27;19923;-72
2023/08/23 17:01:37;;;;;;;;;;;;;;;26.91;58.26;101730.25;10625150;27;20393;-73
2023/08/23 17:06:39;;;;;;;;;;;;;;;25.94;62.66;101726.47;10624664;27;20349;-73
2023/08/23 17:11:42;;;;;;;;;;;;;;;25.63;63.17;101720.06;10624866;28;19930;-73
2023/08/23 17:16:44;;;;;;;;;;;;;;;25.46;63.65;101727.22;10623143;28;19930;-73
2023/08/23 17:21:46;;;;;;;;;;;;;;;25.45;64.03;101721.00;10624943;28;19924;-73
2023/08/23 17:26:48;;;;;;;;;;;;;;;24.74;66.68;101735.59;10626066;27;20284;-73
2023/08/23 17:31:51;;;;;;;;;;;;;;;24.48;68.69;101736.44;10633244;27;19923;-73
2023/08/23 17:36:53;;;;;;;;;;;;;;;24.71;68.03;101744.78;10632568;27;19923;-73
2023/08/23 17:41:55;;;;;;;;;;;;;;;24.53;68.92;101739.47;10631785;27;19930;-73
2023/08/23 17:47:02;;;;;;;;;;;;;;;24.30;71.83;101737.28;10632456;27;19947;-73
2023/08/23 17:52:04;;;;;;;;;;;;;;;24.08;71.08;101748.47;10631409;27;19969;-73
2023/08/23 17:57:06;;;;;;;;;;;;;;;24.07;71.43;101744.97;10631395;27;20374;-73
2023/08/23 18:02:08;;;;;;;;;;;;;;;23.86;73.80;101755.97;10631889;27;19996;-73
2023/08/23 18:07:11;;;;;;;;;;;;;;;23.70;73.05;101756.63;10632100;27;19923;-73
2023/08/23 18:12:15;;;;;;;;;;;;;;;23.54;74.92;101759.94;10631499;27;20003;-74
2023/08/23 18:17:17;;;;;;;;;;;;;;;23.34;75.09;101758.38;10631757;27;19934;-72
2023/08/23 18:22:20;;;;;;;;;;;;;;;23.11;76.38;101752.56;10631830;27;20104;-73
2023/08/23 18:27:22;;;;;;;;;;;;;;;22.97;77.94;101762.72;10612347;27;20393;-72
2023/08/23 18:32:25;;;;;;;;;;;;;;;22.69;79.29;101764.47;10631487;27;19930;-72
2023/08/23 18:37:27;;;;;;;;;;;;;;;22.41;81.35;101767.06;10631206;27;19962;-73
2023/08/23 18:42:29;;;;;;;;;;;;;;;22.31;82.29;101765.38;10629956;27;20362;-72
2023/08/23 18:47:32;;;;;;;;;;;;;;;22.12;83.29;101780.38;10630447;27;19924;-73
2023/08/23 18:52:34;;;;;;;;;;;;;;;21.89;83.26;101775.31;10630093;27;19970;-72
2023/08/23 18:57:36;;;;;;;;;;;;;;;21.71;84.13;101774.31;10629984;27;19928;-72
2023/08/23 19:02:39;;;;;;;;;;;;;;;21.56;85.23;101778.34;10629782;27;19930;-72
2023/08/23 19:07:41;;;;;;;;;;;;;;;21.67;84.63;101784.41;10610765;27;19924;-72
2023/08/23 19:12:43;;;;;;;;;;;;;;;21.64;83.68;101773.19;10628554;27;20251;-73
2023/08/23 19:17:52;;;;;;;;;;;;;;;21.47;84.71;101778.19;10628576;27;19996;-72
2023/08/23 19:22:55;;;;;;;;;;;;;;;21.38;85.96;101786.94;10628995;27;19923;-72
2023/08/23 19:28:00;;;;;;;;;;;;;;;21.36;86.38;101786.22;10628734;27;19927;-72
2023/08/23 19:33:03;;;;;;;;;;;;;;;21.22;87.52;101782.13;10627346;27;19923;-72
2023/08/23 19:38:06;;;;;;;;;;;;;;;21.21;87.07;101792.91;10628843;27;19931;-72
2023/08/23 19:43:08;;;;;;;;;;;;;;;21.08;87.86;101801.09;10626364;27;20409;-72
2023/08/23 19:48:10;;;;;;;;;;;;;;;21.09;87.53;101805.47;10626019;27;20393;-72
2023/08/23 19:53:32;;;;;;;;;;;;;;;20.58;92.61;101817.72;10627357;27;19924;-72
2023/08/23 19:58:34;;;;;;;;;;;;;;;20.76;90.51;101818.00;10626852;27;20010;-72
2023/08/23 20:03:36;;;;;;;;;;;;;;;20.70;90.29;101822.03;10625550;27;19945;-72
2023/08/23 20:08:39;;;;;;;;;;;;;;;20.41;93.09;101819.13;10626477;27;19923;-72
2023/08/23 20:13:43;;;;;;;;;;;;;;;20.68;90.66;101820.47;10625033;27;19923;-72
2023/08/23 20:18:45;;;;;;;;;;;;;;;20.37;92.48;101817.69;10626767;27;19967;-72
2023/08/23 20:23:47;;;;;;;;;;;;;;;20.26;93.67;101820.38;10625905;27;20310;-72
2023/08/23 20:28:50;;;;;;;;;;;;;;;20.30;92.98;101819.19;10625264;27;19924;-72
2023/08/23 20:33:52;;;;;;;;;;;;;;;20.11;94.12;101823.34;10626023;27;19930;-72
2023/08/23 20:38:54;;;;;;;;;;;;;;;19.91;95.96;101816.16;10625402;27;19923;-72
2023/08/23 20:43:56;;;;;;;;;;;;;;;19.85;96.72;101807.72;10625239;27;20018;-73
2023/08/23 20:48:59;;;;;;;;;;;;;;;19.84;97.48;101798.03;10624432;27;19923;-73
2023/08/23 20:54:01;;;;;;;;;;;;;;;19.82;97.66;101802.66;10623528;27;19945;-72
2023/08/23 20:59:03;;;;;;;;;;;;;;;19.71;97.68;101802.63;10624821;27;20002;-74
2023/08/23 21:04:05;;;;;;;;;;;;;;;19.66;99.16;101812.78;10624378;27;19929;-72
2023/08/23 21:09:08;;;;;;;;;;;;;;;19.60;99.56;101806.16;10624963;27;19927;-73
2023/08/23 21:14:10;;;;;;;;;;;;;;;19.54;100.00;101803.16;10623465;28;19963;-72
2023/08/23 21:19:13;;;;;;;;;;;;;;;19.52;100.00;101805.06;10624467;28;20335;-72
2023/08/23 21:24:15;;;;;;;;;;;;;;;19.45;100.00;101813.53;10624492;28;19924;-73
2023/08/23 21:29:17;;;;;;;;;;;;;;;19.47;100.00;101810.75;10624920;28;19948;-73
2023/08/23 21:34:20;;;;;;;;;;;;;;;19.37;100.00;101809.78;10624657;28;19923;-73
2023/08/23 21:39:22;;;;;;;;;;;;;;;19.27;100.00;101810.50;10624663;28;19930;-72
2023/08/23 21:44:24;;;;;;;;;;;;;;;19.10;100.00;101806.50;10624534;27;19929;-72
2023/08/23 21:49:26;;;;;;;;;;;;;;;19.14;100.00;101809.75;10623302;28;19930;-72
2023/08/23 21:54:28;;;;;;;;;;;;;;;19.12;100.00;101811.69;10623749;28;20362;-72
2023/08/23 21:59:31;;;;;;;;;;;;;;;18.88;100.00;101809.97;10623766;28;19924;-72
2023/08/23 22:04:33;;;;;;;;;;;;;;;18.89;100.00;101813.47;10623553;28;20401;-72
2023/08/23 22:09:35;;;;;;;;;;;;;;;18.78;100.00;101806.31;10624110;27;19924;-72
2023/08/23 22:14:38;;;;;;;;;;;;;;;18.56;100.00;101799.97;10626590;27;20282;-72
2023/08/23 22:19:40;;;;;;;;;;;;;;;18.63;100.00;101808.31;10631547;27;19930;-72
2023/08/23 22:24:42;;;;;;;;;;;;;;;18.56;100.00;101812.41;10630678;27;20281;-72
2023/08/23 22:29:44;;;;;;;;;;;;;;;18.50;100.00;101813.69;10630525;27;19930;-72
2023/08/23 22:34:47;;;;;;;;;;;;;;;18.44;100.00;101811.53;10630150;27;19924;-72
2023/08/23 22:39:49;;;;;;;;;;;;;;;18.44;100.00;101811.53;10630715;27;19967;-72
2023/08/23 22:44:51;;;;;;;;;;;;;;;18.51;100.00;101803.94;10628797;27;19930;-73
2023/08/23 22:49:53;;;;;;;;;;;;;;;18.40;100.00;101796.78;10629614;27;19924;-72
2023/08/23 22:54:56;;;;;;;;;;;;;;;18.14;100.00;101809.31;10629979;27;19924;-72
2023/08/23 22:59:58;;;;;;;;;;;;;;;18.24;100.00;101807.69;10629967;27;19923;-72
2023/08/23 23:05:00;;;;;;;;;;;;;;;18.03;100.00;101804.81;10628990;27;20281;-72
2023/08/23 23:10:06;;;;;;;;;;;;;;;18.14;100.00;101802.22;10628853;27;19923;-72
2023/08/23 23:15:08;;;;;;;;;;;;;;;18.02;100.00;101803.09;10627460;27;19934;-72
2023/08/23 23:20:15;;;;;;;;;;;;;;;18.00;100.00;101795.28;10629551;27;19932;-72
2023/08/23 23:25:17;;;;;;;;;;;;;;;18.18;100.00;101786.94;10626804;27;19930;-72
2023/08/23 23:30:19;;;;;;;;;;;;;;;17.92;100.00;101779.09;10628655;27;19927;-72
2023/08/23 23:35:22;;;;;;;;;;;;;;;17.83;100.00;101769.97;10628365;27;19923;-72
2023/08/23 23:40:24;;;;;;;;;;;;;;;17.83;100.00;101762.03;10627607;27;20266;-72
2023/08/23 23:45:45;;;;;;;;;;;;;;;17.69;100.00;101753.41;10627419;27;19974;-72
2023/08/23 23:50:47;;;;;;;;;;;;;;;17.85;100.00;101755.78;10627817;27;19924;-72
2023/08/23 23:55:49;;;;;;;;;;;;;;;17.89;100.00;101752.00;10627634;27;19927;-72
